Time;durP1;ratioP1;P1;durP2;ratioP2;P2;SDS_P1;SDS_P2;PMS_P1;PMS_P2;Temp;Humidity;BMP_temperature;BMP_pressure;BME280_temperature;BME280_humidity;BME280_pressure;Samples;Min_cycle;Max_cycle;Signal;HPM_P1;HPM_P2
2023/08/19 00:00:53;;;;;;;18.10;16.30;;;;;;;;;;5042745;28;20463;-78
2023/08/19 00:03:19;;;;;;;18.97;17.03;;;;;;;;;;5040950;28;20838;-78
2023/08/19 00:05:46;;;;;;;23.37;17.93;;;;;;;;;;5044555;28;20461;-78
2023/08/19 00:08:12;;;;;;;18.33;16.47;;;;;;;;;;5045056;28;20472;-79
2023/08/19 00:10:39;;;;;;;18.83;16.93;;;;;;;;;;5042541;28;20476;-79
2023/08/19 00:13:06;;;;;;;27.23;17.47;;;;;;;;;;5045960;28;20861;-79
2023/08/19 00:15:33;;;;;;;19.80;17.93;;;;;;;;;;5043859;28;20467;-79
2023/08/19 00:18:01;;;;;;;20.50;18.50;;;;;;;;;;5042420;28;21031;-79
2023/08/19 00:20:28;;;;;;;20.07;18.07;;;;;;;;;;5044200;28;20452;-78
2023/08/19 00:22:55;;;;;;;19.63;17.80;;;;;;;;;;5041625;28;20480;-79
2023/08/19 00:25:21;;;;;;;19.40;17.37;;;;;;;;;;5044015;28;21023;-79
2023/08/19 00:27:47;;;;;;;19.70;17.60;;;;;;;;;;5042310;28;20476;-79
2023/08/19 00:30:14;;;;;;;20.43;18.53;;;;;;;;;;5043530;28;20460;-79
2023/08/19 00:32:42;;;;;;;21.23;19.23;;;;;;;;;;5044766;28;21002;-79
2023/08/19 00:35:08;;;;;;;20.37;18.37;;;;;;;;;;5044450;28;20457;-78
2023/08/19 00:37:35;;;;;;;18.37;16.47;;;;;;;;;;5039741;28;20483;-77
2023/08/19 00:40:04;;;;;;;21.33;18.00;;;;;;;;;;5044241;28;20467;-77
2023/08/19 00:42:30;;;;;;;20.10;18.13;;;;;;;;;;5040731;28;20602;-77
2023/08/19 00:44:57;;;;;;;20.87;18.80;;;;;;;;;;5042822;28;20464;-77
2023/08/19 00:47:24;;;;;;;19.87;17.77;;;;;;;;;;5041211;28;20488;-77
2023/08/19 00:49:52;;;;;;;20.97;17.87;;;;;;;;;;5041933;28;20444;-76
2023/08/19 00:52:19;;;;;;;22.13;19.50;;;;;;;;;;5045088;28;20657;-76
2023/08/19 00:54:46;;;;;;;19.63;17.53;;;;;;;;;;5042968;28;20460;-77
2023/08/19 00:57:12;;;;;;;20.80;18.67;;;;;;;;;;5042477;28;20838;-77
2023/08/19 00:59:39;;;;;;;19.37;17.57;;;;;;;;;;5044229;28;20463;-76
2023/08/19 01:02:05;;;;;;;23.80;16.60;;;;;;;;;;5041881;28;20505;-77
2023/08/19 01:04:31;;;;;;;20.40;18.70;;;;;;;;;;5047865;28;20456;-77
2023/08/19 01:07:03;;;;;;;31.47;18.23;;;;;;;;;;5050148;28;20459;-76
2023/08/19 01:09:36;;;;;;;20.30;18.17;;;;;;;;;;5047648;28;20555;-76
2023/08/19 01:12:06;;;;;;;18.67;16.77;;;;;;;;;;5046743;28;20472;-77
2023/08/19 01:14:37;;;;;;;20.60;18.60;;;;;;;;;;5048080;28;20963;-76
2023/08/19 01:17:05;;;;;;;18.90;17.10;;;;;;;;;;5044489;28;20994;-76
2023/08/19 01:19:32;;;;;;;20.17;18.17;;;;;;;;;;5048419;28;20471;-76
2023/08/19 01:22:03;;;;;;;20.47;18.50;;;;;;;;;;5046148;28;20483;-77
2023/08/19 01:24:34;;;;;;;19.73;17.73;;;;;;;;;;5048513;28;20460;-78
2023/08/19 01:27:02;;;;;;;20.43;18.63;;;;;;;;;;5045329;28;20839;-77
2023/08/19 01:29:28;;;;;;;21.43;19.17;;;;;;;;;;5046999;28;20837;-77
2023/08/19 01:31:55;;;;;;;21.23;19.10;;;;;;;;;;5045079;28;20994;-77
2023/08/19 01:34:22;;;;;;;21.17;19.00;;;;;;;;;;5049645;28;20456;-77
2023/08/19 01:36:50;;;;;;;20.80;18.80;;;;;;;;;;5046774;28;20498;-77
2023/08/19 01:39:18;;;;;;;20.87;18.60;;;;;;;;;;5048603;28;20903;-77
2023/08/19 01:41:46;;;;;;;20.83;18.93;;;;;;;;;;5044806;28;20484;-77
2023/08/19 01:44:13;;;;;;;23.77;21.40;;;;;;;;;;5048296;28;20837;-76
2023/08/19 01:46:39;;;;;;;21.93;19.80;;;;;;;;;;5044667;28;20471;-77
2023/08/19 01:49:05;;;;;;;22.93;20.27;;;;;;;;;;5050378;28;20455;-77
2023/08/19 01:51:32;;;;;;;23.70;21.27;;;;;;;;;;5044800;28;20464;-77
2023/08/19 01:53:58;;;;;;;23.40;20.93;;;;;;;;;;5046838;28;21263;-76
2023/08/19 01:56:25;;;;;;;22.67;20.37;;;;;;;;;;5045887;28;20970;-76
2023/08/19 01:58:54;;;;;;;21.07;19.00;;;;;;;;;;5043773;28;20483;-76
2023/08/19 02:01:20;;;;;;;23.13;20.33;;;;;;;;;;5047598;28;20492;-77
2023/08/19 02:03:47;;;;;;;23.53;21.20;;;;;;;;;;5046380;28;20468;-77
2023/08/19 02:06:13;;;;;;;24.30;22.00;;;;;;;;;;5047236;28;20457;-77
2023/08/19 02:08:41;;;;;;;23.00;20.47;;;;;;;;;;5046731;28;21036;-77
2023/08/19 02:11:07;;;;;;;24.27;20.70;;;;;;;;;;5047650;28;20460;-77
2023/08/19 02:13:33;;;;;;;21.33;19.03;;;;;;;;;;5045171;28;20491;-76
2023/08/19 02:16:01;;;;;;;24.43;22.10;;;;;;;;;;5044372;28;20459;-76
2023/08/19 02:18:29;;;;;;;24.50;22.10;;;;;;;;;;5044939;28;20558;-77
2023/08/19 02:20:55;;;;;;;23.30;21.00;;;;;;;;;;5046499;28;20444;-80
2023/08/19 02:23:21;;;;;;;24.37;22.00;;;;;;;;;;5047741;28;20467;-76
2023/08/19 02:25:51;;;;;;;23.10;20.90;;;;;;;;;;5048445;28;20451;-76
2023/08/19 02:28:18;;;;;;;23.63;21.27;;;;;;;;;;5043635;28;20471;-76
2023/08/19 02:30:44;;;;;;;25.00;22.50;;;;;;;;;;5046576;28;20457;-76
2023/08/19 02:33:12;;;;;;;24.33;21.83;;;;;;;;;;5044870;28;20479;-76
2023/08/19 02:35:38;;;;;;;23.63;21.33;;;;;;;;;;5046838;28;20514;-76
2023/08/19 02:38:05;;;;;;;23.30;20.90;;;;;;;;;;5044717;28;20471;-77
2023/08/19 02:40:31;;;;;;;25.87;23.17;;;;;;;;;;5043792;28;20460;-77
2023/08/19 02:42:58;;;;;;;25.87;22.40;;;;;;;;;;5043823;28;20476;-76
2023/08/19 02:45:25;;;;;;;24.27;21.87;;;;;;;;;;5046952;28;20453;-77
2023/08/19 02:47:51;;;;;;;24.93;22.43;;;;;;;;;;5043277;28;20475;-76
2023/08/19 02:50:19;;;;;;;25.43;22.70;;;;;;;;;;5044112;28;20483;-76
2023/08/19 02:52:45;;;;;;;25.47;23.00;;;;;;;;;;5045376;28;20472;-78
2023/08/19 02:55:11;;;;;;;26.33;23.90;;;;;;;;;;5048633;28;20456;-77
2023/08/19 02:57:38;;;;;;;25.47;22.80;;;;;;;;;;5042789;28;20472;-77
2023/08/19 03:00:05;;;;;;;26.20;23.40;;;;;;;;;;5044476;28;20459;-77
2023/08/19 03:02:31;;;;;;;27.07;24.30;;;;;;;;;;5043549;28;20468;-77
2023/08/19 03:04:57;;;;;;;26.87;24.20;;;;;;;;;;5047200;28;20830;-77
2023/08/19 03:07:25;;;;;;;26.60;22.73;;;;;;;;;;5042611;28;20481;-77
2023/08/19 03:09:52;;;;;;;25.90;23.20;;;;;;;;;;5048247;28;20837;-77
2023/08/19 03:12:18;;;;;;;26.83;24.03;;;;;;;;;;5042980;28;20480;-77
2023/08/19 03:14:44;;;;;;;30.63;25.20;;;;;;;;;;5043664;28;20478;-77
2023/08/19 03:17:11;;;;;;;27.57;24.67;;;;;;;;;;5043186;28;20484;-77
2023/08/19 03:19:37;;;;;;;27.57;24.57;;;;;;;;;;5045036;28;20451;-77
2023/08/19 03:22:04;;;;;;;25.13;22.80;;;;;;;;;;5044306;28;20476;-77
2023/08/19 03:24:31;;;;;;;28.37;25.20;;;;;;;;;;5045514;28;20461;-77
2023/08/19 03:26:58;;;;;;;28.00;25.10;;;;;;;;;;5040729;28;20485;-78
2023/08/19 03:29:25;;;;;;;26.60;24.13;;;;;;;;;;5044858;28;20464;-78
2023/08/19 03:31:51;;;;;;;30.13;25.63;;;;;;;;;;5043230;28;21037;-78
2023/08/19 03:34:17;;;;;;;27.90;24.77;;;;;;;;;;5043199;28;21113;-77
2023/08/19 03:36:44;;;;;;;30.00;26.97;;;;;;;;;;5043989;28;20456;-78
2023/08/19 03:39:10;;;;;;;30.40;26.60;;;;;;;;;;5043603;28;20528;-78
2023/08/19 03:41:38;;;;;;;48.67;26.83;;;;;;;;;;5047760;28;20460;-78
2023/08/19 03:44:04;;;;;;;28.60;25.60;;;;;;;;;;5045967;28;20468;-77
2023/08/19 03:46:31;;;;;;;31.90;25.80;;;;;;;;;;5047357;28;20496;-78
2023/08/19 03:48:57;;;;;;;28.93;25.80;;;;;;;;;;5042960;28;20479;-77
2023/08/19 03:51:23;;;;;;;31.10;27.60;;;;;;;;;;5042647;28;20462;-77
2023/08/19 03:53:50;;;;;;;29.90;27.07;;;;;;;;;;5045258;28;20492;-77
2023/08/19 03:56:16;;;;;;;29.93;27.07;;;;;;;;;;5044448;28;20461;-77
2023/08/19 03:58:46;;;;;;;30.47;27.17;;;;;;;;;;5041488;28;20495;-77
2023/08/19 04:01:12;;;;;;;30.47;27.37;;;;;;;;;;5046789;28;20456;-77
2023/08/19 04:03:39;;;;;;;31.50;27.87;;;;;;;;;;5041385;28;20491;-77
2023/08/19 04:06:05;;;;;;;32.30;29.00;;;;;;;;;;5042437;28;20464;-77
2023/08/19 04:08:31;;;;;;;32.10;28.70;;;;;;;;;;5046117;28;20499;-77
2023/08/19 04:11:03;;;;;;;66.00;30.30;;;;;;;;;;5045100;28;20475;-77
2023/08/19 04:13:30;;;;;;;32.10;28.90;;;;;;;;;;5041947;28;20480;-77
2023/08/19 04:16:02;;;;;;;32.80;29.47;;;;;;;;;;5044830;28;20463;-77
2023/08/19 04:18:28;;;;;;;34.60;30.93;;;;;;;;;;5043097;28;20551;-78
2023/08/19 04:20:54;;;;;;;31.80;28.50;;;;;;;;;;5042924;28;20467;-77
2023/08/19 04:23:21;;;;;;;33.47;29.13;;;;;;;;;;5043940;28;20483;-77
2023/08/19 04:25:51;;;;;;;33.57;30.17;;;;;;;;;;5042215;28;20464;-77
2023/08/19 04:28:17;;;;;;;37.13;28.97;;;;;;;;;;5045049;28;20998;-77
2023/08/19 04:30:44;;;;;;;34.40;28.97;;;;;;;;;;5042704;28;20471;-77
2023/08/19 04:33:11;;;;;;;35.10;30.70;;;;;;;;;;5041650;28;20488;-77
2023/08/19 04:35:40;;;;;;;34.40;30.70;;;;;;;;;;5043360;28;20460;-77
2023/08/19 04:38:07;;;;;;;37.83;33.17;;;;;;;;;;5043101;28;20476;-77
2023/08/19 04:40:33;;;;;;;35.93;32.03;;;;;;;;;;5044210;28;20460;-77
2023/08/19 04:42:59;;;;;;;37.63;33.03;;;;;;;;;;5043280;28;20480;-77
2023/08/19 04:45:26;;;;;;;34.60;30.97;;;;;;;;;;5042816;28;20460;-77
2023/08/19 04:47:52;;;;;;;35.30;31.47;;;;;;;;;;5043572;28;20876;-77
2023/08/19 04:50:21;;;;;;;35.60;31.50;;;;;;;;;;5039869;28;20464;-77
2023/08/19 04:52:48;;;;;;;36.00;32.30;;;;;;;;;;5044319;28;20479;-77
2023/08/19 04:55:14;;;;;;;37.33;33.20;;;;;;;;;;5042145;28;20471;-77
2023/08/19 04:57:42;;;;;;;37.83;33.53;;;;;;;;;;5041910;28;20460;-77
2023/08/19 05:00:12;;;;;;;36.50;32.50;;;;;;;;;;5041243;28;20464;-77
2023/08/19 05:02:38;;;;;;;37.20;33.30;;;;;;;;;;5044366;28;21072;-77
2023/08/19 05:05:05;;;;;;;42.23;33.90;;;;;;;;;;5046657;28;20458;-77
2023/08/19 05:07:33;;;;;;;36.50;32.60;;;;;;;;;;5045543;28;20483;-77
2023/08/19 05:09:59;;;;;;;43.13;33.83;;;;;;;;;;5056255;28;20451;-77
2023/08/19 05:12:26;;;;;;;34.17;30.50;;;;;;;;;;5040153;28;20547;-77
2023/08/19 05:14:52;;;;;;;36.73;32.67;;;;;;;;;;5045754;28;20934;-77
2023/08/19 05:17:19;;;;;;;35.67;31.70;;;;;;;;;;5041434;28;20508;-79
2023/08/19 05:19:45;;;;;;;37.57;33.57;;;;;;;;;;5040402;28;20468;-77
2023/08/19 05:22:12;;;;;;;39.50;35.30;;;;;;;;;;5043299;28;21059;-77
2023/08/19 05:24:40;;;;;;;36.60;32.73;;;;;;;;;;5044438;28;20942;-77
2023/08/19 05:27:06;;;;;;;39.23;32.90;;;;;;;;;;5039906;28;20461;-77
2023/08/19 05:29:33;;;;;;;37.13;32.20;;;;;;;;;;5042744;28;20484;-77
2023/08/19 05:31:59;;;;;;;37.20;32.30;;;;;;;;;;5046617;28;20472;-77
2023/08/19 05:34:26;;;;;;;39.43;34.60;;;;;;;;;;5039313;28;20947;-77
2023/08/19 05:36:52;;;;;;;37.07;33.07;;;;;;;;;;5045084;28;20529;-78
2023/08/19 05:39:18;;;;;;;38.23;34.20;;;;;;;;;;5044701;28;20462;-77
2023/08/19 05:41:46;;;;;;;39.80;35.50;;;;;;;;;;5041885;28;21008;-78
2023/08/19 05:44:12;;;;;;;42.73;35.90;;;;;;;;;;5041698;28;20459;-77
2023/08/19 05:46:39;;;;;;;39.70;34.40;;;;;;;;;;5039716;28;20467;-78
2023/08/19 05:49:05;;;;;;;38.47;34.33;;;;;;;;;;5042396;28;20473;-78
2023/08/19 05:51:32;;;;;;;41.20;35.87;;;;;;;;;;5043374;28;20455;-77
2023/08/19 05:54:00;;;;;;;39.53;33.67;;;;;;;;;;5045465;28;20994;-77
2023/08/19 05:56:27;;;;;;;40.77;36.47;;;;;;;;;;5043301;28;20937;-77
2023/08/19 05:58:55;;;;;;;37.30;33.33;;;;;;;;;;5043902;28;20480;-77
2023/08/19 06:01:22;;;;;;;38.43;34.40;;;;;;;;;;5046494;28;20488;-77
2023/08/19 06:03:48;;;;;;;39.00;34.80;;;;;;;;;;5045525;28;20484;-77
2023/08/19 06:06:14;;;;;;;37.00;33.20;;;;;;;;;;5047675;28;20449;-77
2023/08/19 06:08:41;;;;;;;41.50;34.27;;;;;;;;;;5042520;28;20483;-77
2023/08/19 06:11:07;;;;;;;40.13;35.20;;;;;;;;;;5047539;28;20441;-78
2023/08/19 06:13:34;;;;;;;38.03;32.80;;;;;;;;;;5049290;28;20866;-77
2023/08/19 06:16:03;;;;;;;39.03;34.30;;;;;;;;;;5045179;28;20834;-78
2023/08/19 06:18:29;;;;;;;37.97;33.40;;;;;;;;;;5046624;28;20550;-77
2023/08/19 06:20:56;;;;;;;36.87;33.00;;;;;;;;;;5046243;28;20551;-77
2023/08/19 06:23:23;;;;;;;39.90;35.40;;;;;;;;;;5046592;28;20476;-77
2023/08/19 06:25:50;;;;;;;43.33;33.27;;;;;;;;;;5048620;28;21167;-77
2023/08/19 06:28:17;;;;;;;40.87;34.10;;;;;;;;;;5044673;28;20850;-78
2023/08/19 06:30:44;;;;;;;41.80;34.70;;;;;;;;;;5048397;28;20937;-78
2023/08/19 06:33:12;;;;;;;41.90;34.07;;;;;;;;;;5042306;28;21005;-78
2023/08/19 06:35:38;;;;;;;37.63;32.53;;;;;;;;;;5045446;28;20468;-78
2023/08/19 06:38:07;;;;;;;37.10;33.17;;;;;;;;;;5045700;28;20503;-78
2023/08/19 06:40:35;;;;;;;35.67;31.70;;;;;;;;;;5045271;28;20837;-78
2023/08/19 06:43:02;;;;;;;40.40;32.80;;;;;;;;;;5045882;28;20503;-78
2023/08/19 06:45:29;;;;;;;35.60;31.20;;;;;;;;;;5044931;28;20482;-78
2023/08/19 06:47:58;;;;;;;35.30;31.60;;;;;;;;;;5047371;28;20483;-78
2023/08/19 06:50:28;;;;;;;33.43;30.10;;;;;;;;;;5045215;28;20464;-78
2023/08/19 06:52:54;;;;;;;34.47;30.77;;;;;;;;;;5042043;28;20477;-78
2023/08/19 06:55:22;;;;;;;37.07;29.67;;;;;;;;;;5048350;28;20851;-78
2023/08/19 06:57:51;;;;;;;32.97;29.37;;;;;;;;;;5042317;28;20472;-78
2023/08/19 07:00:17;;;;;;;34.40;30.90;;;;;;;;;;5043542;28;20467;-78
2023/08/19 07:02:45;;;;;;;35.83;32.03;;;;;;;;;;5044306;28;20970;-78
2023/08/19 07:05:13;;;;;;;35.33;31.33;;;;;;;;;;5043890;28;20446;-78
2023/08/19 07:07:46;;;;;;;32.80;29.23;;;;;;;;;;5046173;28;20480;-78
2023/08/19 07:10:13;;;;;;;30.93;27.67;;;;;;;;;;5043105;28;20834;-79
2023/08/19 07:12:40;;;;;;;32.23;28.93;;;;;;;;;;5044016;28;20486;-78
2023/08/19 07:15:11;;;;;;;35.43;28.30;;;;;;;;;;5045319;28;20449;-78
2023/08/19 07:17:38;;;;;;;33.30;30.10;;;;;;;;;;5044593;28;20472;-79
2023/08/19 07:20:09;;;;;;;31.60;28.50;;;;;;;;;;5048627;28;20436;-78
2023/08/19 07:22:37;;;;;;;32.17;28.95;;;;;;;;;;5043094;28;20417;-78
2023/08/19 07:25:06;;;;;;;32.20;29.00;;;;;;;;;;5045900;28;20214;-78
2023/08/19 07:27:33;;;;;;;31.60;28.30;;;;;;;;;;5042172;28;20479;-78
2023/08/19 07:30:01;;;;;;;31.20;28.20;;;;;;;;;;5041124;28;20480;-78
2023/08/19 07:32:28;;;;;;;29.17;26.23;;;;;;;;;;5042761;28;20472;-78
2023/08/19 07:34:55;;;;;;;30.33;27.10;;;;;;;;;;5046833;28;20993;-78
2023/08/19 07:37:21;;;;;;;28.90;26.10;;;;;;;;;;5043575;28;20563;-78
2023/08/19 07:39:48;;;;;;;31.80;28.40;;;;;;;;;;5025498;28;20438;-78
2023/08/19 07:42:16;;;;;;;30.33;27.10;;;;;;;;;;5044954;28;20471;-78
2023/08/19 07:44:42;;;;;;;31.07;27.90;;;;;;;;;;5044031;28;20460;-78
2023/08/19 07:47:08;;;;;;;29.20;26.30;;;;;;;;;;5045149;28;20468;-78
2023/08/19 07:49:35;;;;;;;31.70;28.50;;;;;;;;;;5044358;28;20506;-78
2023/08/19 07:52:01;;;;;;;29.40;26.27;;;;;;;;;;5045596;28;20970;-78
2023/08/19 07:54:27;;;;;;;30.90;27.63;;;;;;;;;;5043209;28;20893;-78
2023/08/19 07:56:57;;;;;;;30.40;27.20;;;;;;;;;;5047297;28;20466;-78
2023/08/19 07:59:25;;;;;;;30.53;27.53;;;;;;;;;;5045905;28;21517;-78
2023/08/19 08:01:51;;;;;;;31.07;26.60;;;;;;;;;;5042823;28;20468;-79
2023/08/19 08:04:18;;;;;;;29.90;27.10;;;;;;;;;;5043536;28;20413;-78
2023/08/19 08:06:46;;;;;;;27.70;24.80;;;;;;;;;;5044829;28;20936;-79
2023/08/19 08:09:13;;;;;;;27.97;25.27;;;;;;;;;;5043868;28;20876;-78
2023/08/19 08:11:40;;;;;;;29.07;24.70;;;;;;;;;;5044176;28;20451;-79
2023/08/19 08:14:07;;;;;;;28.70;25.73;;;;;;;;;;5043134;28;20996;-78
2023/08/19 08:16:35;;;;;;;28.00;24.97;;;;;;;;;;5041514;28;20824;-78
2023/08/19 08:19:02;;;;;;;26.87;24.27;;;;;;;;;;5043589;28;20475;-78
2023/08/19 08:21:28;;;;;;;27.33;24.63;;;;;;;;;;5045375;28;20513;-78
2023/08/19 08:23:55;;;;;;;27.43;24.77;;;;;;;;;;5044030;28;20861;-78
2023/08/19 08:26:22;;;;;;;27.40;24.67;;;;;;;;;;5047236;28;20890;-78
2023/08/19 08:28:49;;;;;;;26.60;24.10;;;;;;;;;;5043759;28;21009;-78
2023/08/19 08:31:16;;;;;;;27.35;24.85;;;;;;;;;;5042242;28;20482;-78
2023/08/19 08:33:43;;;;;;;24.00;21.70;;;;;;;;;;5042350;28;20779;-78
2023/08/19 08:36:10;;;;;;;24.47;22.00;;;;;;;;;;5041088;28;20437;-78
2023/08/19 08:38:36;;;;;;;25.07;22.47;;;;;;;;;;5044735;28;20476;-78
2023/08/19 08:41:03;;;;;;;23.37;20.87;;;;;;;;;;5042545;28;20448;-78
2023/08/19 08:43:32;;;;;;;23.97;21.47;;;;;;;;;;5042013;28;20480;-78
2023/08/19 08:45:58;;;;;;;24.63;22.23;;;;;;;;;;5044208;28;20455;-79
2023/08/19 08:48:26;;;;;;;28.77;21.43;;;;;;;;;;5041684;28;20472;-78
2023/08/19 08:50:54;;;;;;;22.40;20.03;;;;;;;;;;5044907;28;20439;-78
2023/08/19 08:53:21;;;;;;;22.63;20.00;;;;;;;;;;5041065;28;20479;-78
2023/08/19 08:55:47;;;;;;;21.40;18.60;;;;;;;;;;5043015;28;20444;-78
2023/08/19 08:58:14;;;;;;;24.70;21.03;;;;;;;;;;5046973;28;20873;-79
2023/08/19 09:00:40;;;;;;;22.20;19.90;;;;;;;;;;5043844;28;20889;-78
2023/08/19 09:03:09;;;;;;;20.90;18.80;;;;;;;;;;5040106;28;20525;-79
2023/08/19 09:05:36;;;;;;;22.20;20.00;;;;;;;;;;5045479;28;20448;-78
2023/08/19 09:08:08;;;;;;;23.77;21.33;;;;;;;;;;5044134;28;20472;-79
2023/08/19 09:10:35;;;;;;;21.40;19.10;;;;;;;;;;5046169;28;20563;-78
2023/08/19 09:13:03;;;;;;;22.30;20.17;;;;;;;;;;5045745;28;20515;-79
2023/08/19 09:15:30;;;;;;;22.67;20.13;;;;;;;;;;5042573;28;20464;-78
2023/08/19 09:17:58;;;;;;;23.50;21.20;;;;;;;;;;5043735;28;20468;-78
2023/08/19 09:20:25;;;;;;;22.10;20.10;;;;;;;;;;5045025;28;20461;-78
2023/08/19 09:22:51;;;;;;;20.73;18.60;;;;;;;;;;5044205;28;20491;-78
2023/08/19 09:25:19;;;;;;;22.63;20.33;;;;;;;;;;5046996;28;20953;-79
2023/08/19 09:27:46;;;;;;;21.30;19.30;;;;;;;;;;5047385;28;20483;-78
2023/08/19 09:30:14;;;;;;;21.80;19.50;;;;;;;;;;5046731;28;20476;-79
2023/08/19 09:32:41;;;;;;;21.00;18.90;;;;;;;;;;5046344;28;20480;-79
2023/08/19 09:35:08;;;;;;;23.30;21.00;;;;;;;;;;5045047;28;20466;-79
2023/08/19 09:37:35;;;;;;;27.10;24.17;;;;;;;;;;5047221;28;20475;-78
2023/08/19 09:40:07;;;;;;;28.03;25.07;;;;;;;;;;5043723;28;20457;-78
2023/08/19 09:42:35;;;;;;;24.20;21.70;;;;;;;;;;5044599;28;20490;-78
2023/08/19 09:45:02;;;;;;;23.77;20.93;;;;;;;;;;5046756;28;20452;-78
2023/08/19 09:47:31;;;;;;;30.87;22.07;;;;;;;;;;5047695;28;20487;-79
2023/08/19 09:49:58;;;;;;;21.23;19.33;;;;;;;;;;5052227;28;20907;-78
2023/08/19 09:52:24;;;;;;;21.60;19.30;;;;;;;;;;5047003;28;20477;-78
2023/08/19 09:54:52;;;;;;;22.30;20.10;;;;;;;;;;5048544;28;20460;-79
2023/08/19 09:57:19;;;;;;;22.83;20.37;;;;;;;;;;5047193;28;20543;-79
2023/08/19 09:59:47;;;;;;;21.97;19.70;;;;;;;;;;5046630;28;20449;-79
2023/08/19 10:02:14;;;;;;;22.27;20.07;;;;;;;;;;5045688;28;20529;-78
2023/08/19 10:04:41;;;;;;;21.60;19.53;;;;;;;;;;5047316;28;20517;-78
2023/08/19 10:07:10;;;;;;;22.50;20.20;;;;;;;;;;5048128;28;20540;-79
2023/08/19 10:09:38;;;;;;;22.33;20.17;;;;;;;;;;5046232;28;20880;-78
2023/08/19 10:12:05;;;;;;;24.83;22.47;;;;;;;;;;5045452;28;20833;-79
2023/08/19 10:14:32;;;;;;;24.43;22.00;;;;;;;;;;5045646;28;20463;-78
2023/08/19 10:17:05;;;;;;;25.40;23.07;;;;;;;;;;5045445;28;20447;-78
2023/08/19 10:19:36;;;;;;;24.53;22.10;;;;;;;;;;5048284;28;20467;-79
2023/08/19 10:22:03;;;;;;;24.47;22.07;;;;;;;;;;5041743;28;20460;-79
2023/08/19 10:24:30;;;;;;;24.27;22.07;;;;;;;;;;5046990;28;20475;-79
2023/08/19 10:26:57;;;;;;;24.17;21.77;;;;;;;;;;5047233;28;20455;-78
2023/08/19 10:29:24;;;;;;;24.40;22.13;;;;;;;;;;5046512;28;20491;-79
2023/08/19 10:31:50;;;;;;;23.37;21.07;;;;;;;;;;5045733;28;20491;-79
2023/08/19 10:34:26;;;;;;;23.57;21.30;;;;;;;;;;5043895;28;20953;-78
2023/08/19 10:37:05;;;;;;;22.83;20.73;;;;;;;;;;5043973;28;20495;-79
2023/08/19 10:39:31;;;;;;;22.60;20.40;;;;;;;;;;5044113;28;20444;-78
2023/08/19 10:41:59;;;;;;;22.63;20.40;;;;;;;;;;5046124;28;21020;-79
2023/08/19 10:44:27;;;;;;;21.67;19.33;;;;;;;;;;5044855;28;20467;-79
2023/08/19 10:47:07;;;;;;;22.67;20.27;;;;;;;;;;5045102;28;20965;-78
2023/08/19 10:49:35;;;;;;;23.33;21.13;;;;;;;;;;5048259;28;21027;-79
2023/08/19 10:52:03;;;;;;;21.00;19.00;;;;;;;;;;5046133;28;20476;-79
2023/08/19 10:54:31;;;;;;;20.87;18.83;;;;;;;;;;5046349;28;20471;-79
2023/08/19 10:57:08;;;;;;;23.23;20.73;;;;;;;;;;5046602;28;20851;-79
2023/08/19 10:59:36;;;;;;;23.20;18.83;;;;;;;;;;5046286;28;20456;-79
2023/08/19 11:02:04;;;;;;;21.40;19.30;;;;;;;;;;5043045;28;20499;-78
2023/08/19 11:04:31;;;;;;;19.10;17.20;;;;;;;;;;5045461;28;20464;-79
2023/08/19 11:06:58;;;;;;;21.77;19.70;;;;;;;;;;5043043;28;20472;-79
2023/08/19 11:09:26;;;;;;;21.70;19.37;;;;;;;;;;5043999;28;20483;-79
2023/08/19 11:11:52;;;;;;;19.60;17.60;;;;;;;;;;5043035;28;20904;-79
2023/08/19 11:14:19;;;;;;;19.20;17.50;;;;;;;;;;5042815;28;21005;-78
2023/08/19 11:16:48;;;;;;;20.93;18.73;;;;;;;;;;5043501;28;20529;-79
2023/08/19 11:19:15;;;;;;;19.27;17.63;;;;;;;;;;5046462;28;20469;-79
2023/08/19 11:21:42;;;;;;;19.77;17.63;;;;;;;;;;5046939;28;20560;-78
2023/08/19 11:24:11;;;;;;;19.30;17.70;;;;;;;;;;5044163;28;20455;-79
2023/08/19 11:26:39;;;;;;;18.93;17.23;;;;;;;;;;5043694;28;20460;-79
2023/08/19 11:29:05;;;;;;;18.50;16.73;;;;;;;;;;5049762;28;20479;-79
2023/08/19 11:31:32;;;;;;;18.17;16.47;;;;;;;;;;5043448;28;20494;-79
2023/08/19 11:33:58;;;;;;;44.03;25.20;;;;;;;;;;5046682;28;20483;-79
2023/08/19 11:36:25;;;;;;;19.67;17.60;;;;;;;;;;5043509;28;20475;-79
2023/08/19 11:38:54;;;;;;;20.00;17.50;;;;;;;;;;5042623;28;20472;-79
2023/08/19 11:41:22;;;;;;;35.17;22.00;;;;;;;;;;5044240;28;20460;-79
2023/08/19 11:43:50;;;;;;;32.27;20.93;;;;;;;;;;5043819;28;21041;-79
2023/08/19 11:46:17;;;;;;;39.90;24.37;;;;;;;;;;5040319;28;20456;-79
2023/08/19 11:48:43;;;;;;;26.83;20.57;;;;;;;;;;5044469;28;20478;-79
2023/08/19 11:51:11;;;;;;;20.83;18.83;;;;;;;;;;5047787;28;20487;-79
2023/08/19 11:53:38;;;;;;;19.17;17.37;;;;;;;;;;5045080;28;20480;-79
2023/08/19 11:56:04;;;;;;;24.53;18.07;;;;;;;;;;5044603;28;20467;-79
2023/08/19 11:58:47;;;;;;;24.67;18.53;;;;;;;;;;5045552;28;20471;-78
2023/08/19 12:01:13;;;;;;;34.10;19.40;;;;;;;;;;5042522;28;20462;-79
2023/08/19 12:03:42;;;;;;;20.70;17.90;;;;;;;;;;5044546;28;20484;-79
2023/08/19 12:06:08;;;;;;;20.33;18.43;;;;;;;;;;5046717;28;20475;-79
2023/08/19 12:08:35;;;;;;;21.73;18.77;;;;;;;;;;5044150;28;20476;-79
2023/08/19 12:11:01;;;;;;;22.80;19.07;;;;;;;;;;5041349;28;20499;-79
2023/08/19 12:13:28;;;;;;;21.43;19.33;;;;;;;;;;5040941;28;20493;-79
2023/08/19 12:15:58;;;;;;;19.90;18.17;;;;;;;;;;5045984;28;20463;-79
2023/08/19 12:18:24;;;;;;;20.33;18.47;;;;;;;;;;5039607;28;20484;-79
2023/08/19 12:20:53;;;;;;;20.47;18.37;;;;;;;;;;5038766;28;20457;-79
2023/08/19 12:23:19;;;;;;;21.13;19.20;;;;;;;;;;5041843;28;20481;-78
2023/08/19 12:25:49;;;;;;;23.57;20.20;;;;;;;;;;5043067;28;20460;-79
2023/08/19 12:28:16;;;;;;;20.03;17.90;;;;;;;;;;5044944;28;20768;-78
2023/08/19 12:30:42;;;;;;;22.70;20.43;;;;;;;;;;5039134;28;20852;-79
2023/08/19 12:33:12;;;;;;;20.40;18.30;;;;;;;;;;5026789;28;20481;-79
2023/08/19 12:35:41;;;;;;;19.77;17.77;;;;;;;;;;5046952;28;20475;-79
2023/08/19 12:38:09;;;;;;;18.83;16.83;;;;;;;;;;5045121;28;20484;-79
2023/08/19 12:40:38;;;;;;;20.27;18.33;;;;;;;;;;5045741;28;20833;-79
2023/08/19 12:43:04;;;;;;;20.60;18.73;;;;;;;;;;5044857;28;20484;-79
2023/08/19 12:45:29;;;;;;;20.47;18.43;;;;;;;;;;5044624;28;20514;-79
2023/08/19 12:47:56;;;;;;;21.40;19.27;;;;;;;;;;5044986;28;20480;-79
2023/08/19 12:50:26;;;;;;;18.70;16.90;;;;;;;;;;5043177;28;20229;-79
2023/08/19 12:52:54;;;;;;;19.03;17.07;;;;;;;;;;5039873;28;20476;-79
2023/08/19 12:55:23;;;;;;;19.23;17.30;;;;;;;;;;5041112;28;20494;-79
2023/08/19 12:57:51;;;;;;;20.20;17.60;;;;;;;;;;5045822;28;20470;-79
2023/08/19 13:00:18;;;;;;;18.83;16.60;;;;;;;;;;5050187;28;20460;-79
2023/08/19 13:02:44;;;;;;;17.40;14.90;;;;;;;;;;5047396;28;20480;-79
2023/08/19 13:05:11;;;;;;;19.23;17.17;;;;;;;;;;5049999;28;20471;-79
2023/08/19 13:07:39;;;;;;;19.20;17.30;;;;;;;;;;5049121;28;20480;-79
2023/08/19 13:10:06;;;;;;;19.67;17.87;;;;;;;;;;5048080;28;20507;-79
2023/08/19 13:12:32;;;;;;;17.77;16.00;;;;;;;;;;5047774;28;20847;-79
2023/08/19 13:14:59;;;;;;;18.77;16.83;;;;;;;;;;5044968;28;20524;-79
2023/08/19 13:17:25;;;;;;;19.07;17.07;;;;;;;;;;5048191;28;20472;-79
2023/08/19 13:19:52;;;;;;;22.20;17.03;;;;;;;;;;5047819;28;20575;-79
2023/08/19 13:22:19;;;;;;;18.23;16.53;;;;;;;;;;5047847;28;21029;-79
2023/08/19 13:24:46;;;;;;;22.97;16.17;;;;;;;;;;5047018;28;20456;-79
2023/08/19 13:27:13;;;;;;;18.47;16.70;;;;;;;;;;5045685;28;21008;-79
2023/08/19 13:29:39;;;;;;;18.30;16.50;;;;;;;;;;5048295;28;20436;-79
2023/08/19 13:32:06;;;;;;;19.43;17.53;;;;;;;;;;5046992;28;20464;-79
2023/08/19 13:34:33;;;;;;;18.93;17.03;;;;;;;;;;5045509;28;20444;-79
2023/08/19 13:37:00;;;;;;;18.87;17.07;;;;;;;;;;5044789;28;21000;-79
2023/08/19 13:39:27;;;;;;;19.20;17.30;;;;;;;;;;5048185;28;20467;-79
2023/08/19 13:41:55;;;;;;;18.50;16.70;;;;;;;;;;5043049;28;20459;-80
2023/08/19 13:44:25;;;;;;;18.67;17.07;;;;;;;;;;5049826;28;21193;-79
2023/08/19 13:46:52;;;;;;;18.33;16.53;;;;;;;;;;5043654;28;20452;-79
2023/08/19 13:49:18;;;;;;;18.70;16.67;;;;;;;;;;5045233;28;20957;-79
2023/08/19 13:51:46;;;;;;;19.93;18.10;;;;;;;;;;5042461;28;21012;-79
2023/08/19 13:54:14;;;;;;;19.17;17.27;;;;;;;;;;5049323;28;20962;-79
2023/08/19 13:56:41;;;;;;;17.00;15.37;;;;;;;;;;5042122;28;20460;-79
2023/08/19 13:59:12;;;;;;;16.10;14.70;;;;;;;;;;5047626;28;20835;-79
2023/08/19 14:01:38;;;;;;;18.03;16.40;;;;;;;;;;5049680;28;20458;-79
2023/08/19 14:04:05;;;;;;;18.03;16.23;;;;;;;;;;5045389;28;20480;-79
2023/08/19 14:06:31;;;;;;;17.20;15.50;;;;;;;;;;5041865;28;20550;-79
2023/08/19 14:08:58;;;;;;;16.73;15.13;;;;;;;;;;5042918;28;20475;-79
2023/08/19 14:11:24;;;;;;;17.60;14.83;;;;;;;;;;5048408;28;20486;-79
2023/08/19 14:13:51;;;;;;;17.63;15.37;;;;;;;;;;5046498;28;20669;-79
2023/08/19 14:16:19;;;;;;;19.00;17.13;;;;;;;;;;5045293;28;21025;-79